Blakesburg, IA (52536)

9:20 PM CST on December 10, 2016 (GMT -0600)
Ottumwa | | Change Station

Elev 675 ft 41.00 °N, 92.44 °W | Updated 8 seconds ago

Overcast
Overcast
29.3 °F
Feels Like 29 °F
N
1.3
Wind Variable Wind from South
Gusts 2.5 mph

Today
High -- | Low -- °F
--% Chance of Precip.
Yesterday
High -- | Low -- °F
Precip. -- in
Pressure 30.14 in
Visibility 10.0 miles
Clouds Overcast 4700 ft
Windchill 29 °F
Dew Point 19 °F
Humidity 65%
Rainfall 0.00 in
Snow Depth Not available.
7:24 AM 4:42 PM
Waxing Gibbous, 88% visible
METAR KOTM 110253Z AUTO 14012KT 10SM OVC047 M02/M08 A3011 RMK AO2 SLP207 T10221083 58028
Pressure 30.14 in
Visibility 10.0 miles
Clouds Overcast 4700 ft
Windchill 29 °F
Dew Point 19 °F
Humidity 65%
Rainfall 0.00 in
Snow Depth Not available.
7:24 AM 4:42 PM
Waxing Gibbous, 88% visible
METAR KOTM 110253Z AUTO 14012KT 10SM OVC047 M02/M08 A3011 RMK AO2 SLP207 T10221083 58028

10-Day Weather Forecast

Almanac

Astronomy

Dec. 10, 2016 Rise Set
Actual Time
Civil Twilight
Nautical Twilight
Astronomical Twilight
Moon
Length of Visible Light
Length of Day
Tomorrow will be .
, % of the Moon is Illuminated

Today's Extremes

State Highs State Lows

Community

WunderPhotos

Upload Photos

1,956,699 photos uploaded!

WunderBlog® & News

Nearby

Air Quality

  Air Quality AQ Index Pollutant
Not available.

Snow Depth

Station Depth Elevation

Earthquake Activity

City Distance Mag. Time & Date
Minimum magnitude displayed is 2.5.

Coastal Water Temperatures

Place Temperature

Stations

Nearby Weather Stations

Station Location Temp. Windchill Dew Point Humidity Wind Precip. Elev Updated Type
                   

Watches & Warnings

There are currently no watches in effect.